Airfield :
LOGIN :

Register | Disclaimer

   EN    FR    IT 

 










Legend :    VFR   Marginal VFR   IFR   Intensive IFR   Very Intensive IFR
Visi :
Ceiling :
>= 8 km
>= 3000ft
5 to 8 km
1000 to 3000 ft
1500m to 5 km
500 to 1000 ft
800 to 1500m
200 to 500 ft
< 800m
< 200 ft
Symbols :   Thunderstorms  Fog  Heavy snow  Heavy precipitations  Wind > 20 kt
SIGMETs :     Misc.  Thunderstorms  Icing  Turbulence  Mountain Waves  Volcanic Ashes






- Airport Elevation : 436 ft
- IATA code : ANG


LFBU - Angoulême Brie Champniers

CURRENT METAR :
  • 220930Z AUTO 25010KT 9999 BKN010 BKN015 OVC039 17/16 Q1019 TEMPO 4000 SHRA BKN015TCU

EXPIRED METARs :
  • 220900Z AUTO 24007KT 210V270 9999 FEW011 OVC031 16/15 Q1019 TEMPO 4000 SHRA BKN015TCU
  • 220830Z AUTO 24007KT 190V280 2100 1400 R28/1500D +RA BR OVC004 16/15 Q1019 TEMPO 4000 SHRA BKN015TCU
  • 220800Z AUTO 20009KT 3100 -RA BR OVC004 16/15 Q1019 TEMPO SHRA BKN015TCU
  • 220730Z AUTO 21007KT 170V240 9999 OVC005 15/15 Q1019 TEMPO 4000 SHRA BKN015TCU
  • 220700Z AUTO 19007KT 140V240 9999 OVC006 15/14 Q1019 TEMPO 4000 -RA BKN010
  • 220630Z AUTO 20008KT 150V220 5000 -RADZ BR OVC008 15/14 Q1019 TEMPO BKN010
  • 220600Z AUTO 20009KT 160V230 9999 OVC010 15/14 Q1019 TEMPO 4000 -RA
  • 220530Z AUTO 18005KT 140V230 9999 SCT013 BKN020 OVC025 15/14 Q1019
  • 220500Z AUTO 18005KT 160V220 9999 BKN025 BKN039 OVC046 15/14 Q1019

TAF AMD TAF LFBU
Valid from the 22 at 08:00 until the 23 at 06:00 UTC


220842Z 2208/2306 22008KT 9999 BKN020
TEMPO 2208/2210 2000 RA BKN004
TEMPO 2210/2215 4000 SHRA BKN015TCU
TEMPO 2302/2306 1500 MIFG



MET'MAP, your aeronautical weather chart ! - Copyright ORBIFLY December 2007 - Disclaimer

ORBIFLY MET'MAP TEAM :

Programming & Development : Alexandra Zaïnal
Original concept : Baudouin d'Aumeries
Technical & hardware support : Manuel Goepfert
Assistance : Marc-Olivier Méhu




SOURCES & CREDITS :

   NOAA